Isle Of Palms, SC (29451)

2:52 AM EDT on September 02, 2014 (GMT -0400)
Snee Farm | Change Station
CLOSE
Current Station
Personal Weather Station
Location: Mt. Pleasant, SC
Elevation: 22 ft
Nearby Weather Stations

Elev 22 ft 32.84 °N, 79.84 °W | Updated 2 minutes ago

Mostly Cloudy
Mostly Cloudy
79.7 °F
Feels Like 85 °F
N
0.0
Wind Variable Wind from SSE

Today
High -- | Low -- °F
--% Chance of Precip.
Yesterday
High -- | Low -- °F
Precip. -- in
6:54 AM 7:42 PM
Waxing Crescent, 48% visible
Pressure 30.08 in
Visibility 5.0 miles
Clouds Few 1700 ft
Heat Index 85 °F
Dew Point 77 °F
Humidity 91%
Rainfall 0.00 in
Snow Depth Not available.
UV 0 out of 12
Pollen 8.60 out of 12
Air Quality Not available.
Flu Activity Not available.
METAR KLRO 020635Z AUTO 00000KT 5SM BR FEW017 26/25 A3008 RMK AO2

More Conditions Fewer Conditions

Pressure 30.08 in
Visibility 5.0 miles
Clouds Few 1700 ft
Heat Index 85 °F
Dew Point 77 °F
Humidity 91%
Rainfall 0.00 in
Snow Depth Not available.
UV 0 out of 12
Pollen 8.60 out of 12
Air Quality Not available.
Flu Activity Not available.
METAR KLRO 020635Z AUTO 00000KT 5SM BR FEW017 26/25 A3008 RMK AO2

More Conditions Fewer Conditions

10-Day Weather Forecast

Almanac

Astronomy

Sep. 02, 2014 Rise Set
Actual Time 6:54 AM EDT 7:42 PM EDT
Civil Twilight 6:29 AM EDT 8:07 PM EDT
Nautical Twilight 5:59 AM EDT 8:37 PM EDT
Astronomical Twilight 5:29 AM EDT 9:07 PM EDT
Moon 2:14 PM EDT 12:05 AM EDT
Length of Visible Light 13h 38m
Length of Day
12h 48m
Tomorrow will be 1m 56s shorter.
Waxing Crescent, 48% of the Moon is Illuminated
Today
Waxing Crescent
Sep 2
First Quarter
Sep 8
Full
Sep 15
Last Quarter
Sep 24
New

Today's Extremes

State Highs State Lows

Community

WunderPhotos

Upload Photos

1,749,589 photos uploaded!

WunderBlogs® & News

Nearby

Air Quality

  Air Quality AQ Index Pollutant
Yesterday Moderate
PM2.5
Yesterday Good
OZONE
Tuesday Good
OZONE

Snow Depth

Station Depth Elevation
No new snow has been reported.

Earthquake Activity

City Distance Mag. Time & Date
No recent earthquake activity has been reported nearby.
Minimum magnitude displayed is 2.5.

Coastal Water Temperatures

Place Temperature
No Stations Reporting

Nearby Weather Stations